createdAt,value
2022-09-11T00:00:52.811Z,18.95
2022-09-11T00:03:24.463Z,19.00
2022-09-11T00:05:52.346Z,20.13
2022-09-11T00:08:21.238Z,20.13
2022-09-11T00:10:49.498Z,19.42
2022-09-11T00:13:21.040Z,16.60
2022-09-11T00:15:48.973Z,22.02
2022-09-11T00:18:17.422Z,18.75
2022-09-11T00:20:51.834Z,21.30
2022-09-11T00:23:19.740Z,18.75
2022-09-11T00:25:47.071Z,18.63
2022-09-11T00:28:15.934Z,22.10
2022-09-11T00:30:46.276Z,16.20
2022-09-11T00:33:13.980Z,18.92
2022-09-11T00:35:41.624Z,18.77
2022-09-11T00:38:12.106Z,18.48
2022-09-11T00:40:50.165Z,15.77
2022-09-11T00:43:17.825Z,18.25
2022-09-11T00:45:46.529Z,20.85
2022-09-11T00:48:15.468Z,16.92
2022-09-11T00:50:43.696Z,19.50
2022-09-11T00:53:15.932Z,22.27
2022-09-11T00:55:44.552Z,20.67
2022-09-11T00:58:13.416Z,22.80
2022-09-11T01:00:42.885Z,19.58
2022-09-11T01:03:09.945Z,20.73
2022-09-11T01:05:37.973Z,20.13
2022-09-11T01:08:05.024Z,19.13
2022-09-11T01:10:38.909Z,20.13
2022-09-11T01:13:05.898Z,22.60
2022-09-11T01:15:42.432Z,22.90
2022-09-11T01:18:20.008Z,24.27
2022-09-11T01:20:50.036Z,26.55
2022-09-11T01:23:22.917Z,27.05
2022-09-11T01:26:01.696Z,30.25
2022-09-11T01:28:40.051Z,25.90
2022-09-11T01:31:09.845Z,26.48
2022-09-11T01:33:54.731Z,27.95
2022-09-11T01:36:29.751Z,22.90
2022-09-11T01:38:58.686Z,24.58
2022-09-11T01:41:45.978Z,27.27
2022-09-11T01:44:17.090Z,27.90
2022-09-11T01:46:49.816Z,25.80
2022-09-11T01:49:19.672Z,26.48
2022-09-11T01:51:47.902Z,26.48
2022-09-11T01:54:19.581Z,28.00
2022-09-11T01:56:53.134Z,30.10
2022-09-11T01:59:26.040Z,28.52
2022-09-11T02:01:55.370Z,25.85
2022-09-11T02:04:24.811Z,28.65
2022-09-11T02:07:15.101Z,27.27
2022-09-11T02:09:52.343Z,25.88
2022-09-11T02:12:20.262Z,29.17
2022-09-11T02:14:49.054Z,26.70
2022-09-11T02:17:18.745Z,29.58
2022-09-11T02:19:45.860Z,29.27
2022-09-11T02:22:12.919Z,26.25
2022-09-11T02:24:39.972Z,28.52
2022-09-11T02:27:08.934Z,30.48
2022-09-11T02:29:39.232Z,27.00
2022-09-11T02:32:07.014Z,26.42
2022-09-11T02:34:36.251Z,30.67
2022-09-11T02:37:03.244Z,30.85
2022-09-11T02:39:40.422Z,30.55
2022-09-11T02:42:15.937Z,30.00
2022-09-11T02:44:48.949Z,33.30
2022-09-11T02:47:34.936Z,27.17
2022-09-11T02:50:21.781Z,32.15
2022-09-11T02:52:49.303Z,28.88
2022-09-11T02:55:16.268Z,29.55
2022-09-11T02:57:50.481Z,25.77
2022-09-11T03:00:17.651Z,31.92
2022-09-11T03:02:45.334Z,27.90
2022-09-11T03:05:13.441Z,29.10
2022-09-11T03:07:40.464Z,29.85
2022-09-11T03:10:08.367Z,33.28
2022-09-11T03:12:36.481Z,30.80
2022-09-11T03:15:03.518Z,29.27
2022-09-11T03:17:30.488Z,30.48
2022-09-11T03:19:58.041Z,32.47
2022-09-11T03:22:25.129Z,29.75
2022-09-11T03:24:52.144Z,29.65
2022-09-11T03:27:19.158Z,30.77
2022-09-11T03:29:46.454Z,29.45
2022-09-11T03:32:13.564Z,29.60
2022-09-11T03:34:40.573Z,32.80
2022-09-11T03:37:07.590Z,27.50
2022-09-11T03:39:34.678Z,31.98
2022-09-11T03:42:01.721Z,32.13
2022-09-11T03:44:28.767Z,29.88
2022-09-11T03:46:56.371Z,32.05
2022-09-11T03:49:23.423Z,35.15
2022-09-11T03:51:50.580Z,33.20
2022-09-11T03:54:17.630Z,35.05
2022-09-11T03:56:44.683Z,33.83
2022-09-11T03:59:12.558Z,36.40
2022-09-11T04:01:39.646Z,36.38
2022-09-11T04:04:06.734Z,36.95
2022-09-11T04:06:33.757Z,34.95
2022-09-11T04:09:01.285Z,34.72
2022-09-11T04:11:28.308Z,31.90
2022-09-11T04:13:55.296Z,36.03
2022-09-11T04:16:22.338Z,33.45
2022-09-11T04:18:49.548Z,30.27
2022-09-11T04:21:18.328Z,36.28
2022-09-11T04:23:45.681Z,32.63
2022-09-11T04:26:15.712Z,32.63
2022-09-11T04:28:43.293Z,32.47
2022-09-11T04:31:10.424Z,32.33
2022-09-11T04:33:39.686Z,30.70
2022-09-11T04:36:11.261Z,33.08
2022-09-11T04:38:39.199Z,34.25
2022-09-11T04:41:06.372Z,30.65
2022-09-11T04:43:35.972Z,33.00
2022-09-11T04:46:04.759Z,30.92
2022-09-11T04:48:31.891Z,30.65
2022-09-11T04:51:01.645Z,30.80
2022-09-11T04:53:28.914Z,34.72
2022-09-11T04:56:02.868Z,35.03
2022-09-11T04:58:29.992Z,33.33
2022-09-11T05:00:57.053Z,29.67
2022-09-11T05:03:24.633Z,31.17
2022-09-11T05:05:51.648Z,29.92
2022-09-11T05:08:18.957Z,31.73
2022-09-11T05:10:47.337Z,26.42
2022-09-11T05:13:14.674Z,26.77
2022-09-11T05:15:41.680Z,29.05
2022-09-11T05:18:08.698Z,28.85
2022-09-11T05:20:35.720Z,30.45
2022-09-11T05:23:02.774Z,32.20
2022-09-11T05:25:31.812Z,27.13
2022-09-11T05:27:58.877Z,27.25
2022-09-11T05:30:25.990Z,28.52
2022-09-11T05:32:55.137Z,25.58
2022-09-11T05:35:26.468Z,26.52
2022-09-11T05:37:56.236Z,25.48
2022-09-11T05:40:23.333Z,27.92
2022-09-11T05:42:50.399Z,26.98
2022-09-11T05:45:17.457Z,27.27
2022-09-11T05:47:45.754Z,29.45
2022-09-11T05:50:12.754Z,26.60
2022-09-11T05:52:42.849Z,27.65
2022-09-11T05:55:09.990Z,30.30
2022-09-11T05:57:37.257Z,27.35
2022-09-11T06:00:05.631Z,26.77
2022-09-11T06:02:32.855Z,29.95
2022-09-11T06:04:59.888Z,30.38
2022-09-11T06:07:26.961Z,26.50
2022-09-11T06:09:53.976Z,27.30
2022-09-11T06:12:21.046Z,24.77
2022-09-11T06:14:48.043Z,25.67
2022-09-11T06:17:15.074Z,26.35
2022-09-11T06:19:42.088Z,25.88
2022-09-11T06:22:09.168Z,27.45
2022-09-11T06:24:36.550Z,25.42
2022-09-11T06:27:03.653Z,25.90
2022-09-11T06:29:34.151Z,28.13
2022-09-11T06:32:01.172Z,26.25
2022-09-11T06:34:28.197Z,23.50
2022-09-11T06:36:55.702Z,24.42
2022-09-11T06:39:23.189Z,25.70
2022-09-11T06:41:50.342Z,25.35
2022-09-11T06:44:17.341Z,24.80
2022-09-11T06:46:45.106Z,24.05
2022-09-11T06:49:12.252Z,25.27
2022-09-11T06:51:40.009Z,25.92
2022-09-11T06:54:07.788Z,24.92
2022-09-11T06:56:34.841Z,23.35
2022-09-11T06:59:01.889Z,24.42
2022-09-11T07:01:29.018Z,23.02
2022-09-11T07:03:56.257Z,23.45
2022-09-11T07:06:25.061Z,23.67
2022-09-11T07:08:53.138Z,25.42
2022-09-11T07:11:20.213Z,20.77
2022-09-11T07:13:47.513Z,23.42
2022-09-11T07:16:15.068Z,20.25
2022-09-11T07:18:43.480Z,22.92
2022-09-11T07:21:14.816Z,21.55
2022-09-11T07:23:42.178Z,21.27
2022-09-11T07:26:10.908Z,20.15
2022-09-11T07:28:38.448Z,20.23
2022-09-11T07:31:06.707Z,19.88
2022-09-11T07:33:33.832Z,20.20
2022-09-11T07:36:00.935Z,19.85
2022-09-11T07:38:30.659Z,22.58
2022-09-11T07:40:57.993Z,22.00
2022-09-11T07:43:25.057Z,21.92
2022-09-11T07:45:56.520Z,21.80
2022-09-11T07:48:23.788Z,22.17
2022-09-11T07:50:58.084Z,21.90
2022-09-11T07:53:25.838Z,19.83
2022-09-11T07:55:52.892Z,21.50
2022-09-11T07:58:19.943Z,22.63
2022-09-11T08:00:47.025Z,22.35
2022-09-11T08:03:14.865Z,23.25
2022-09-11T08:05:41.909Z,24.30
2022-09-11T08:08:08.929Z,22.98
2022-09-11T08:10:40.710Z,22.85
2022-09-11T08:13:09.532Z,21.52
2022-09-11T08:15:37.607Z,25.95
2022-09-11T08:18:04.756Z,23.40
2022-09-11T08:20:32.365Z,27.38
2022-09-11T08:22:59.468Z,28.85
2022-09-11T08:25:28.561Z,25.27
2022-09-11T08:27:55.657Z,25.58
2022-09-11T08:30:22.636Z,26.58
2022-09-11T08:32:49.681Z,24.63
2022-09-11T08:35:16.672Z,25.35
2022-09-11T08:37:43.725Z,30.23
2022-09-11T08:40:11.737Z,26.65
2022-09-11T08:42:41.985Z,27.15
2022-09-11T08:45:14.548Z,28.08
2022-09-11T08:47:42.983Z,28.10
2022-09-11T08:50:16.525Z,25.63
2022-09-11T08:52:43.768Z,27.45
2022-09-11T08:55:14.425Z,29.45
2022-09-11T08:57:44.565Z,27.63
2022-09-11T09:00:11.974Z,28.35
2022-09-11T09:02:50.924Z,29.25
2022-09-11T09:05:23.950Z,27.70
2022-09-11T09:07:54.056Z,26.48
2022-09-11T09:10:35.481Z,26.95
2022-09-11T09:13:22.760Z,28.25
2022-09-11T09:15:52.652Z,29.42
2022-09-11T09:18:33.669Z,33.25
2022-09-11T09:21:06.735Z,29.90
2022-09-11T09:23:37.954Z,32.25
2022-09-11T09:26:05.000Z,29.70
2022-09-11T09:28:37.752Z,28.33
2022-09-11T09:31:07.420Z,27.45
2022-09-11T09:33:36.079Z,30.98
2022-09-11T09:36:16.577Z,29.83
2022-09-11T09:38:44.248Z,27.80
2022-09-11T09:41:14.631Z,29.27
2022-09-11T09:43:41.881Z,28.73
2022-09-11T09:46:17.742Z,33.25
2022-09-11T09:48:45.109Z,30.20
2022-09-11T09:51:13.507Z,33.08
2022-09-11T09:53:50.111Z,29.83
2022-09-11T09:56:18.692Z,30.17
2022-09-11T09:59:00.864Z,29.20
2022-09-11T10:01:44.804Z,29.90
2022-09-11T10:04:12.558Z,30.35
2022-09-11T10:06:39.711Z,33.78
2022-09-11T10:09:06.776Z,32.53
2022-09-11T10:11:33.833Z,29.02
2022-09-11T10:14:00.851Z,27.02
2022-09-11T10:16:28.617Z,29.92
2022-09-11T10:18:56.551Z,28.92
2022-09-11T10:21:35.625Z,28.20
2022-09-11T10:24:22.392Z,30.38
2022-09-11T10:26:51.384Z,29.02
2022-09-11T10:29:25.833Z,26.55
2022-09-11T10:31:54.730Z,28.80
2022-09-11T10:34:23.098Z,29.58
2022-09-11T10:37:08.397Z,30.92
2022-09-11T10:39:36.610Z,29.35
2022-09-11T10:42:10.538Z,30.25
2022-09-11T10:44:37.577Z,30.70
2022-09-11T10:47:06.426Z,30.38
2022-09-11T10:49:34.282Z,28.33
2022-09-11T10:52:02.875Z,30.52
2022-09-11T10:54:35.246Z,29.88
2022-09-11T10:57:04.655Z,28.42
2022-09-11T10:59:50.285Z,30.67
2022-09-11T11:02:28.472Z,17.30
2022-09-11T11:04:56.758Z,11.00
2022-09-11T11:07:42.601Z,6.78
2022-09-11T11:10:15.935Z,14.45
2022-09-11T11:12:53.145Z,20.02
2022-09-11T11:15:30.269Z,16.17
2022-09-11T11:18:06.549Z,7.80
2022-09-11T11:20:45.669Z,29.88
2022-09-11T11:23:18.664Z,27.30
2022-09-11T11:25:48.903Z,31.05
2022-09-11T11:28:35.432Z,30.42
2022-09-11T11:31:15.687Z,20.05
2022-09-11T11:33:45.851Z,23.80
2022-09-11T11:36:17.195Z,25.80
2022-09-11T11:39:00.378Z,22.75
2022-09-11T11:41:30.257Z,21.30
2022-09-11T11:43:59.022Z,21.17
2022-09-11T11:46:30.185Z,27.58
2022-09-11T11:49:02.813Z,24.35
2022-09-11T11:51:33.231Z,28.58
2022-09-11T11:54:04.852Z,24.92
2022-09-11T11:56:33.338Z,28.38
2022-09-11T11:59:04.519Z,27.67
2022-09-11T12:01:48.162Z,25.92
2022-09-11T12:04:44.681Z,25.98
2022-09-11T12:07:16.843Z,30.40
2022-09-11T12:09:49.262Z,25.25
2022-09-11T12:12:17.068Z,27.48
2022-09-11T12:14:51.795Z,28.15
2022-09-11T12:17:25.377Z,21.63
2022-09-11T12:20:10.637Z,10.43
2022-09-11T12:22:39.004Z,7.78
2022-09-11T12:25:27.398Z,14.68
2022-09-11T12:28:10.243Z,8.48
2022-09-11T12:30:56.272Z,16.60
2022-09-11T12:33:41.641Z,13.15
2022-09-11T12:36:11.198Z,23.90
2022-09-11T12:38:44.848Z,15.68
2022-09-11T12:41:14.671Z,25.77
2022-09-11T12:43:41.661Z,10.80
2022-09-11T12:46:24.386Z,20.42
2022-09-11T12:49:20.343Z,13.90
2022-09-11T12:51:52.237Z,13.82
2022-09-11T12:54:25.212Z,10.50
2022-09-11T12:57:03.544Z,13.98
2022-09-11T12:59:32.635Z,17.63
2022-09-11T13:02:00.539Z,19.92
2022-09-11T13:04:30.998Z,21.92
2022-09-11T13:07:05.827Z,12.63
2022-09-11T13:09:35.135Z,21.70
2022-09-11T13:12:20.755Z,21.33
2022-09-11T13:14:50.904Z,21.17
2022-09-11T13:17:26.819Z,22.20
2022-09-11T13:19:57.381Z,22.20
2022-09-11T13:22:30.991Z,11.05
2022-09-11T13:25:11.868Z,9.02
2022-09-11T13:27:40.291Z,7.72
2022-09-11T13:30:07.888Z,8.60
2022-09-11T13:32:35.628Z,7.45
2022-09-11T13:35:07.821Z,19.13
2022-09-11T13:37:38.018Z,7.40
2022-09-11T13:40:06.171Z,17.85
2022-09-11T13:42:33.518Z,15.65
2022-09-11T13:45:01.767Z,17.02
2022-09-11T13:47:30.993Z,17.50
2022-09-11T13:49:59.972Z,21.70
2022-09-11T13:52:28.926Z,20.42
2022-09-11T13:54:58.091Z,10.18
2022-09-11T13:57:28.054Z,9.80
2022-09-11T13:59:56.949Z,18.20
2022-09-11T14:02:40.575Z,20.73
2022-09-11T14:05:07.696Z,18.77
2022-09-11T14:07:35.369Z,15.00
2022-09-11T14:10:05.434Z,17.17
2022-09-11T14:12:33.986Z,9.50
2022-09-11T14:15:04.078Z,14.02
2022-09-11T14:17:31.364Z,13.32
2022-09-11T14:20:01.170Z,14.05
2022-09-11T14:22:31.019Z,13.23
2022-09-11T14:25:03.933Z,12.52
2022-09-11T14:27:31.325Z,13.77
2022-09-11T14:29:58.321Z,10.43
2022-09-11T14:32:39.876Z,9.40
2022-09-11T14:35:08.109Z,12.73
2022-09-11T14:37:40.202Z,11.25
2022-09-11T14:40:17.152Z,6.90
2022-09-11T14:42:45.214Z,10.43
2022-09-11T14:45:18.759Z,13.20
2022-09-11T14:47:47.669Z,11.75
2022-09-11T14:50:15.021Z,11.68
2022-09-11T14:52:46.337Z,13.52
2022-09-11T14:55:20.265Z,11.85
2022-09-11T14:57:47.604Z,6.80
2022-09-11T15:00:15.609Z,12.50
2022-09-11T15:02:42.676Z,11.73
2022-09-11T15:05:15.786Z,8.05
2022-09-11T15:07:45.375Z,11.25
2022-09-11T15:10:13.526Z,12.57
2022-09-11T15:12:40.577Z,6.55
2022-09-11T15:15:07.865Z,12.23
2022-09-11T15:17:36.209Z,10.82
2022-09-11T15:20:09.026Z,11.57
2022-09-11T15:22:36.361Z,13.23
2022-09-11T15:25:03.694Z,10.93
2022-09-11T15:27:31.193Z,8.13
2022-09-11T15:29:58.269Z,15.43
2022-09-11T15:32:25.322Z,14.38
2022-09-11T15:34:53.925Z,9.02
2022-09-11T15:37:21.202Z,11.75
2022-09-11T15:39:49.883Z,7.95
2022-09-11T15:42:16.957Z,7.82
2022-09-11T15:44:45.751Z,8.27
2022-09-11T15:47:13.600Z,8.75
2022-09-11T15:49:41.504Z,8.13
2022-09-11T15:52:08.871Z,10.45
2022-09-11T15:54:35.903Z,11.30
2022-09-11T15:57:02.917Z,8.55
2022-09-11T15:59:30.185Z,10.48
2022-09-11T16:01:58.148Z,12.60
2022-09-11T16:04:27.121Z,14.05
2022-09-11T16:06:54.683Z,10.25
2022-09-11T16:09:22.997Z,10.15
2022-09-11T16:11:50.410Z,9.70
2022-09-11T16:14:27.902Z,10.45
2022-09-11T16:16:57.948Z,7.07
2022-09-11T16:19:28.775Z,5.50
2022-09-11T16:21:57.070Z,6.40
2022-09-11T16:24:25.414Z,11.43
2022-09-11T16:26:55.669Z,9.07
2022-09-11T16:29:23.343Z,14.40
2022-09-11T16:31:50.775Z,10.13
2022-09-11T16:34:17.858Z,8.50
2022-09-11T16:36:45.941Z,10.73
2022-09-11T16:39:14.227Z,9.93
2022-09-11T16:41:41.381Z,11.60
2022-09-11T16:44:09.435Z,10.15
2022-09-11T16:46:37.210Z,8.75
2022-09-11T16:49:05.813Z,10.90
2022-09-11T16:51:34.034Z,10.38
2022-09-11T16:54:01.375Z,8.15
2022-09-11T16:56:28.828Z,8.68
2022-09-11T16:58:55.877Z,8.43
2022-09-11T17:01:24.403Z,8.27
2022-09-11T17:03:52.632Z,9.70
2022-09-11T17:06:20.220Z,8.05
2022-09-11T17:08:50.238Z,9.30
2022-09-11T17:11:18.344Z,12.57
2022-09-11T17:13:46.488Z,10.40
2022-09-11T17:16:18.288Z,9.63
2022-09-11T17:18:47.334Z,9.10
2022-09-11T17:21:14.513Z,8.27
2022-09-11T17:23:41.769Z,8.35
2022-09-11T17:26:09.934Z,8.30
2022-09-11T17:28:37.544Z,10.85
2022-09-11T17:31:06.855Z,8.45
2022-09-11T17:33:35.376Z,8.48
2022-09-11T17:36:05.968Z,8.05
2022-09-11T17:38:33.347Z,9.50
2022-09-11T17:41:02.603Z,9.73
2022-09-11T17:43:29.661Z,8.85
2022-09-11T17:46:07.309Z,9.25
2022-09-11T17:48:35.002Z,8.25
2022-09-11T17:51:12.102Z,9.73
2022-09-11T17:53:40.966Z,7.93
2022-09-11T17:56:10.712Z,9.25
2022-09-11T17:58:38.312Z,10.38
2022-09-11T18:01:06.013Z,7.68
2022-09-11T18:03:33.886Z,7.38
2022-09-11T18:06:02.330Z,9.40
2022-09-11T18:08:33.501Z,7.78
2022-09-11T18:11:02.321Z,9.73
2022-09-11T18:13:34.776Z,8.15
2022-09-11T18:16:02.609Z,8.75
2022-09-11T18:18:30.542Z,8.85
2022-09-11T18:21:04.415Z,8.60
2022-09-11T18:23:31.441Z,9.52
2022-09-11T18:26:00.235Z,9.90
2022-09-11T18:28:27.637Z,9.50
2022-09-11T18:31:00.816Z,10.82
2022-09-11T18:33:28.007Z,10.35
2022-09-11T18:35:55.223Z,8.95
2022-09-11T18:38:22.285Z,9.73
2022-09-11T18:40:56.124Z,11.70
2022-09-11T18:43:23.191Z,9.48
2022-09-11T18:45:50.311Z,10.02
2022-09-11T18:48:17.410Z,9.70
2022-09-11T18:50:44.544Z,8.07
2022-09-11T18:53:12.563Z,9.52
2022-09-11T18:55:39.689Z,8.68
2022-09-11T18:58:06.787Z,10.18
2022-09-11T19:00:34.760Z,10.82
2022-09-11T19:03:01.863Z,9.95
2022-09-11T19:05:30.137Z,10.07
2022-09-11T19:08:00.090Z,11.77
2022-09-11T19:10:27.594Z,11.57
2022-09-11T19:12:54.643Z,8.48
2022-09-11T19:15:21.938Z,8.57
2022-09-11T19:17:49.645Z,10.60
2022-09-11T19:20:16.828Z,8.75
2022-09-11T19:22:44.262Z,9.55
2022-09-11T19:25:11.314Z,10.00
2022-09-11T19:27:38.543Z,10.35
2022-09-11T19:30:06.674Z,9.90
2022-09-11T19:32:33.824Z,10.32
2022-09-11T19:35:01.492Z,8.05
2022-09-11T19:37:28.505Z,10.02
2022-09-11T19:39:57.053Z,8.48
2022-09-11T19:42:24.195Z,9.52
2022-09-11T19:44:56.094Z,8.57
2022-09-11T19:47:24.837Z,11.82
2022-09-11T19:49:51.905Z,7.70
2022-09-11T19:52:19.010Z,8.77
2022-09-11T19:54:46.076Z,9.50
2022-09-11T19:57:13.209Z,10.48
2022-09-11T19:59:40.349Z,8.32
2022-09-11T20:02:07.539Z,8.32
2022-09-11T20:04:34.622Z,12.95
2022-09-11T20:07:01.636Z,11.02
2022-09-11T20:09:32.595Z,8.82
2022-09-11T20:12:01.152Z,9.80
2022-09-11T20:14:28.958Z,8.40
2022-09-11T20:16:56.104Z,8.75
2022-09-11T20:19:23.164Z,8.82
2022-09-11T20:21:50.386Z,9.73
2022-09-11T20:24:17.802Z,9.32
2022-09-11T20:26:44.824Z,11.10
2022-09-11T20:29:16.055Z,9.52
2022-09-11T20:31:48.873Z,10.43
2022-09-11T20:34:19.788Z,11.45
2022-09-11T20:36:47.045Z,9.98
2022-09-11T20:39:15.350Z,9.02
2022-09-11T20:41:42.693Z,11.07
2022-09-11T20:44:09.756Z,10.25
2022-09-11T20:46:36.870Z,8.75
2022-09-11T20:49:05.356Z,9.88
2022-09-11T20:51:32.919Z,9.98
2022-09-11T20:54:00.809Z,9.23
2022-09-11T20:56:28.363Z,9.25
2022-09-11T20:58:55.899Z,10.50
2022-09-11T21:01:23.594Z,11.18
2022-09-11T21:03:52.303Z,10.43
2022-09-11T21:06:25.415Z,9.48
2022-09-11T21:08:56.528Z,8.45
2022-09-11T21:11:24.010Z,11.00
2022-09-11T21:13:51.373Z,8.25
2022-09-11T21:16:19.638Z,8.23
2022-09-11T21:18:51.101Z,9.70
2022-09-11T21:21:18.822Z,8.10
2022-09-11T21:23:46.212Z,8.88
2022-09-11T21:26:14.825Z,9.63
2022-09-11T21:28:41.871Z,11.77
2022-09-11T21:31:08.946Z,9.13
2022-09-11T21:33:36.537Z,7.75
2022-09-11T21:36:04.145Z,9.48
2022-09-11T21:38:31.181Z,9.23
2022-09-11T21:40:59.264Z,10.43
2022-09-11T21:43:26.651Z,9.95
2022-09-11T21:45:53.839Z,12.68
2022-09-11T21:48:20.853Z,10.70
2022-09-11T21:50:47.982Z,9.73
2022-09-11T21:53:15.131Z,10.63
2022-09-11T21:55:43.122Z,12.52
2022-09-11T21:58:13.692Z,13.00
2022-09-11T22:00:43.015Z,11.00
2022-09-11T22:03:12.203Z,11.52
2022-09-11T22:05:43.233Z,10.00
2022-09-11T22:08:11.389Z,10.43
2022-09-11T22:10:48.652Z,10.43
2022-09-11T22:13:16.498Z,11.40
2022-09-11T22:15:44.070Z,11.07
2022-09-11T22:18:11.036Z,10.68
2022-09-11T22:20:38.168Z,12.10
2022-09-11T22:23:05.592Z,11.65
2022-09-11T22:25:33.230Z,12.13
2022-09-11T22:28:00.204Z,12.95
2022-09-11T22:30:28.047Z,14.27
2022-09-11T22:32:55.504Z,9.48
2022-09-11T22:35:22.528Z,12.70
2022-09-11T22:37:49.598Z,12.10
2022-09-11T22:40:16.619Z,12.88
2022-09-11T22:42:43.789Z,13.05
2022-09-11T22:45:11.536Z,12.88
2022-09-11T22:47:38.554Z,11.43
2022-09-11T22:50:05.785Z,15.35
2022-09-11T22:52:32.862Z,12.52
2022-09-11T22:55:00.082Z,10.77
2022-09-11T22:57:29.245Z,9.60
2022-09-11T22:59:56.598Z,11.85
2022-09-11T23:02:27.297Z,12.70
2022-09-11T23:05:13.086Z,10.38
2022-09-11T23:07:40.092Z,11.48
2022-09-11T23:10:07.453Z,12.43
2022-09-11T23:12:34.453Z,9.85
2022-09-11T23:15:02.958Z,13.13
2022-09-11T23:17:30.018Z,8.25
2022-09-11T23:19:57.063Z,10.65
2022-09-11T23:22:24.131Z,10.98
2022-09-11T23:24:51.136Z,10.85
2022-09-11T23:27:18.146Z,9.05
2022-09-11T23:29:45.164Z,10.75
2022-09-11T23:32:12.189Z,9.80
2022-09-11T23:34:39.293Z,10.82
2022-09-11T23:37:06.544Z,8.48
2022-09-11T23:39:33.561Z,9.45
2022-09-11T23:42:00.576Z,12.30
2022-09-11T23:44:27.631Z,14.95
2022-09-11T23:46:54.742Z,11.25
2022-09-11T23:49:21.715Z,10.65
2022-09-11T23:51:49.090Z,10.85
2022-09-11T23:54:16.568Z,11.18
2022-09-11T23:56:43.672Z,10.20
2022-09-11T23:59:10.812Z,11.63
